sensor_id;sensor_type;location;lat;lon;timestamp;P1;P2;P0
77411;PMS7003;66484;49.968;19.140;2024-02-14T00:01:49;178.00;162.00;100.00
77411;PMS7003;66484;49.968;19.140;2024-02-14T00:04:17;199.50;182.50;109.75
77411;PMS7003;66484;49.968;19.140;2024-02-14T00:06:47;205.00;179.50;102.00
77411;PMS7003;66484;49.968;19.140;2024-02-14T00:08:55;168.75;154.50;93.75
77411;PMS7003;66484;49.968;19.140;2024-02-14T00:11:16;140.25;118.75;64.50
77411;PMS7003;66484;49.968;19.140;2024-02-14T00:13:25;177.75;155.75;91.50
77411;PMS7003;66484;49.968;19.140;2024-02-14T00:15:50;160.00;138.50;87.00
77411;PMS7003;66484;49.968;19.140;2024-02-14T00:17:59;171.50;142.75;81.75
77411;PMS7003;66484;49.968;19.140;2024-02-14T00:20:20;166.50;148.25;83.50
77411;PMS7003;66484;49.968;19.140;2024-02-14T00:22:32;172.00;150.75;94.00
77411;PMS7003;66484;49.968;19.140;2024-02-14T00:25:00;166.25;143.25;93.00
77411;PMS7003;66484;49.968;19.140;2024-02-14T00:27:25;144.75;134.25;81.25
77411;PMS7003;66484;49.968;19.140;2024-02-14T00:29:41;173.50;147.75;88.75
77411;PMS7003;66484;49.968;19.140;2024-02-14T00:31:57;165.50;145.75;86.50
77411;PMS7003;66484;49.968;19.140;2024-02-14T00:34:11;152.25;131.75;80.50
77411;PMS7003;66484;49.968;19.140;2024-02-14T00:36:20;144.75;130.00;80.00
77411;PMS7003;66484;49.968;19.140;2024-02-14T00:38:49;138.00;121.00;73.75
77411;PMS7003;66484;49.968;19.140;2024-02-14T06:09:50;90.25;75.00;47.75
77411;PMS7003;66484;49.968;19.140;2024-02-14T06:12:19;96.00;87.50;52.75
77411;PMS7003;66484;49.968;19.140;2024-02-14T06:14:28;109.75;97.25;65.50
77411;PMS7003;66484;49.968;19.140;2024-02-14T06:16:56;136.25;120.25;72.25
77411;PMS7003;66484;49.968;19.140;2024-02-14T06:19:25;207.75;179.50;100.25
77411;PMS7003;66484;49.968;19.140;2024-02-14T06:21:54;211.75;179.50;102.00
77411;PMS7003;66484;49.968;19.140;2024-02-14T06:24:03;215.25;178.00;99.00
77411;PMS7003;66484;49.968;19.140;2024-02-14T06:26:28;169.00;156.25;93.00
77411;PMS7003;66484;49.968;19.140;2024-02-14T06:28:37;181.75;149.75;88.50
77411;PMS7003;66484;49.968;19.140;2024-02-14T06:31:05;186.50;164.00;97.75
77411;PMS7003;66484;49.968;19.140;2024-02-14T06:33:14;213.25;184.00;109.75
77411;PMS7003;66484;49.968;19.140;2024-02-14T06:35:42;172.75;153.00;89.00
77411;PMS7003;66484;49.968;19.140;2024-02-14T06:38:12;123.00;116.50;70.75
77411;PMS7003;66484;49.968;19.140;2024-02-14T06:40:21;128.00;114.50;70.50
77411;PMS7003;66484;49.968;19.140;2024-02-14T06:42:44;130.00;114.75;68.25
77411;PMS7003;66484;49.968;19.140;2024-02-14T06:44:52;161.50;148.00;89.25
77411;PMS7003;66484;49.968;19.140;2024-02-14T06:47:14;166.75;143.00;89.50
77411;PMS7003;66484;49.968;19.140;2024-02-14T06:49:23;134.75;123.00;76.25
77411;PMS7003;66484;49.968;19.140;2024-02-14T06:51:51;118.50;108.75;67.50
77411;PMS7003;66484;49.968;19.140;2024-02-14T06:54:20;131.50;112.25;71.25
77411;PMS7003;66484;49.968;19.140;2024-02-14T06:56:32;135.75;117.25;75.50
77411;PMS7003;66484;49.968;19.140;2024-02-14T06:58:53;128.50;116.50;71.00
77411;PMS7003;66484;49.968;19.140;2024-02-14T07:01:08;142.75;123.75;76.00
77411;PMS7003;66484;49.968;19.140;2024-02-14T07:03:33;149.75;130.25;78.50
77411;PMS7003;66484;49.968;19.140;2024-02-14T07:05:41;125.25;112.75;68.75
77411;PMS7003;66484;49.968;19.140;2024-02-14T07:08:03;137.00;119.75;74.00
77411;PMS7003;66484;49.968;19.140;2024-02-14T07:10:32;127.75;110.25;68.50
77411;PMS7003;66484;49.968;19.140;2024-02-14T07:13:01;125.75;108.75;68.00
77411;PMS7003;66484;49.968;19.140;2024-02-14T07:15:11;106.00;98.25;56.50
77411;PMS7003;66484;49.968;19.140;2024-02-14T07:17:32;112.25;102.75;68.25
77411;PMS7003;66484;49.968;19.140;2024-02-14T07:19:42;125.75;110.00;71.50
77411;PMS7003;66484;49.968;19.140;2024-02-14T07:22:11;114.75;103.00;67.00
77411;PMS7003;66484;49.968;19.140;2024-02-14T07:24:20;118.50;107.50;67.50
77411;PMS7003;66484;49.968;19.140;2024-02-14T07:26:50;125.25;108.00;69.00
77411;PMS7003;66484;49.968;19.140;2024-02-14T07:29:00;111.50;99.75;62.00
77411;PMS7003;66484;49.968;19.140;2024-02-14T07:31:22;119.00;103.50;62.00
77411;PMS7003;66484;49.968;19.140;2024-02-14T07:33:31;106.25;95.75;59.75
77411;PMS7003;66484;49.968;19.140;2024-02-14T07:35:59;111.75;99.75;60.75
77411;PMS7003;66484;49.968;19.140;2024-02-14T07:38:08;114.75;101.25;61.00
77411;PMS7003;66484;49.968;19.140;2024-02-14T07:40:29;110.50;95.00;57.50
77411;PMS7003;66484;49.968;19.140;2024-02-14T07:42:39;103.25;95.25;59.50
77411;PMS7003;66484;49.968;19.140;2024-02-14T07:45:00;112.75;96.25;59.25
77411;PMS7003;66484;49.968;19.140;2024-02-14T07:47:11;95.75;87.25;52.75
77411;PMS7003;66484;49.968;19.140;2024-02-14T07:49:34;94.75;89.25;53.00
77411;PMS7003;66484;49.968;19.140;2024-02-14T07:51:43;102.00;88.50;54.00
77411;PMS7003;66484;49.968;19.140;2024-02-14T07:54:04;88.75;75.25;46.00
77411;PMS7003;66484;49.968;19.140;2024-02-14T07:56:13;87.50;73.75;44.25
77411;PMS7003;66484;49.968;19.140;2024-02-14T07:58:35;92.75;80.00;48.25
77411;PMS7003;66484;49.968;19.140;2024-02-14T08:00:44;94.25;81.25;50.00
77411;PMS7003;66484;49.968;19.140;2024-02-14T08:03:05;96.25;86.00;52.50
77411;PMS7003;66484;49.968;19.140;2024-02-14T08:05:14;106.25;89.50;54.00
77411;PMS7003;66484;49.968;19.140;2024-02-14T08:07:46;87.75;76.00;50.00
77411;PMS7003;66484;49.968;19.140;2024-02-14T08:10:15;97.75;89.75;52.50
77411;PMS7003;66484;49.968;19.140;2024-02-14T08:12:45;89.50;78.00;51.50
77411;PMS7003;66484;49.968;19.140;2024-02-14T08:15:14;89.75;80.00;52.25
77411;PMS7003;66484;49.968;19.140;2024-02-14T08:17:23;87.75;75.50;48.75
77411;PMS7003;66484;49.968;19.140;2024-02-14T08:19:52;85.25;76.25;50.00
77411;PMS7003;66484;49.968;19.140;2024-02-14T08:22:01;86.50;80.50;48.75
77411;PMS7003;66484;49.968;19.140;2024-02-14T08:24:30;89.25;80.25;50.75
77411;PMS7003;66484;49.968;19.140;2024-02-14T08:26:42;91.50;74.50;47.50
77411;PMS7003;66484;49.968;19.140;2024-02-14T08:29:11;83.50;73.25;46.00
77411;PMS7003;66484;49.968;19.140;2024-02-14T08:31:40;87.75;78.50;48.00
77411;PMS7003;66484;49.968;19.140;2024-02-14T08:33:49;81.00;71.25;48.50
77411;PMS7003;66484;49.968;19.140;2024-02-14T08:36:10;81.25;67.00;43.50
77411;PMS7003;66484;49.968;19.140;2024-02-14T08:38:20;82.25;70.00;43.75
77411;PMS7003;66484;49.968;19.140;2024-02-14T08:40:42;84.75;73.50;47.50
77411;PMS7003;66484;49.968;19.140;2024-02-14T08:42:51;76.00;58.50;38.50
77411;PMS7003;66484;49.968;19.140;2024-02-14T08:45:12;76.50;59.25;38.50
77411;PMS7003;66484;49.968;19.140;2024-02-14T08:47:21;79.25;61.50;40.00
77411;PMS7003;66484;49.968;19.140;2024-02-14T08:49:42;74.50;58.00;39.50
77411;PMS7003;66484;49.968;19.140;2024-02-14T08:51:51;71.00;52.25;34.75
77411;PMS7003;66484;49.968;19.140;2024-02-14T08:54:21;79.75;61.00;40.75
77411;PMS7003;66484;49.968;19.140;2024-02-14T08:56:50;74.25;57.75;37.00
77411;PMS7003;66484;49.968;19.140;2024-02-14T08:59:29;58.75;46.25;33.00
77411;PMS7003;66484;49.968;19.140;2024-02-14T09:01:58;64.00;51.50;34.00
77411;PMS7003;66484;49.968;19.140;2024-02-14T09:04:27;52.00;39.50;25.75
77411;PMS7003;66484;49.968;19.140;2024-02-14T09:06:35;57.75;44.00;30.00
77411;PMS7003;66484;49.968;19.140;2024-02-14T09:08:57;51.50;42.00;27.50
77411;PMS7003;66484;49.968;19.140;2024-02-14T09:11:26;56.00;45.00;30.00
77411;PMS7003;66484;49.968;19.140;2024-02-14T09:13:35;53.00;43.75;28.75
77411;PMS7003;66484;49.968;19.140;2024-02-14T09:15:57;57.25;46.50;29.75
77411;PMS7003;66484;49.968;19.140;2024-02-14T09:18:05;49.25;39.75;25.50
77411;PMS7003;66484;49.968;19.140;2024-02-14T09:20:27;50.25;39.00;25.00
77411;PMS7003;66484;49.968;19.140;2024-02-14T09:22:36;50.75;42.00;26.75
77411;PMS7003;66484;49.968;19.140;2024-02-14T09:24:45;35.25;30.50;9.25
77411;PMS7003;66484;49.968;19.140;2024-02-14T09:27:00;52.00;42.00;27.50
77411;PMS7003;66484;49.968;19.140;2024-02-14T09:29:18;51.25;42.50;27.75
77411;PMS7003;66484;49.968;19.140;2024-02-14T09:31:33;68.50;54.25;35.25
77411;PMS7003;66484;49.968;19.140;2024-02-14T09:33:48;80.00;66.00;42.00
77411;PMS7003;66484;49.968;19.140;2024-02-14T09:36:06;78.75;64.50;40.75
77411;PMS7003;66484;49.968;19.140;2024-02-14T09:38:21;74.75;59.75;37.00
77411;PMS7003;66484;49.968;19.140;2024-02-14T09:40:43;68.00;51.25;34.75
77411;PMS7003;66484;49.968;19.140;2024-02-14T09:42:58;40.50;36.00;24.00
77411;PMS7003;66484;49.968;19.140;2024-02-14T09:45:17;34.75;32.25;21.00
77411;PMS7003;66484;49.968;19.140;2024-02-14T09:47:33;17.67;16.00;14.00
77411;PMS7003;66484;49.968;19.140;2024-02-14T09:49:48;17.75;17.75;14.75
77411;PMS7003;66484;49.968;19.140;2024-02-14T09:52:04;25.25;21.25;14.50
77411;PMS7003;66484;49.968;19.140;2024-02-14T09:54:19;19.67;16.33;12.00
77411;PMS7003;66484;49.968;19.140;2024-02-14T09:56:34;15.33;14.33;10.00
77411;PMS7003;66484;49.968;19.140;2024-02-14T09:58:56;32.75;22.75;16.50
77411;PMS7003;66484;49.968;19.140;2024-02-14T10:01:05;27.00;18.25;13.00
77411;PMS7003;66484;49.968;19.140;2024-02-14T10:03:27;17.75;16.00;11.75
77411;PMS7003;66484;49.968;19.140;2024-02-14T10:05:35;21.33;18.00;13.00
77411;PMS7003;66484;49.968;19.140;2024-02-14T10:07:57;18.75;18.75;13.50
77411;PMS7003;66484;49.968;19.140;2024-02-14T10:10:06;16.33;16.33;12.33
77411;PMS7003;66484;49.968;19.140;2024-02-14T10:12:35;18.33;16.67;13.33
77411;PMS7003;66484;49.968;19.140;2024-02-14T10:15:05;29.00;20.00;15.33
77411;PMS7003;66484;49.968;19.140;2024-02-14T10:17:17;13.67;12.00;8.00
77411;PMS7003;66484;49.968;19.140;2024-02-14T10:19:41;15.33;11.67;8.00
77411;PMS7003;66484;49.968;19.140;2024-02-14T10:21:56;11.00;9.33;6.00
77411;PMS7003;66484;49.968;19.140;2024-02-14T10:24:29;7.33;7.33;6.33
77411;PMS7003;66484;49.968;19.140;2024-02-14T10:26:58;10.00;10.00;7.33
77411;PMS7003;66484;49.968;19.140;2024-02-14T10:29:07;11.67;11.67;9.00
77411;PMS7003;66484;49.968;19.140;2024-02-14T10:31:35;12.33;12.33;8.00
77411;PMS7003;66484;49.968;19.140;2024-02-14T10:33:43;14.00;14.00;9.67
77411;PMS7003;66484;49.968;19.140;2024-02-14T10:36:07;16.00;16.00;13.00
77411;PMS7003;66484;49.968;19.140;2024-02-14T10:38:25;12.00;12.00;10.00
77411;PMS7003;66484;49.968;19.140;2024-02-14T10:40:44;10.00;10.00;7.00
77411;PMS7003;66484;49.968;19.140;2024-02-14T10:42:55;14.33;13.67;10.00
77411;PMS7003;66484;49.968;19.140;2024-02-14T10:45:06;13.00;11.00;9.33
77411;PMS7003;66484;49.968;19.140;2024-02-14T10:47:21;15.33;14.67;12.00
77411;PMS7003;66484;49.968;19.140;2024-02-14T10:49:37;17.00;15.67;11.67
77411;PMS7003;66484;49.968;19.140;2024-02-14T10:51:48;18.00;17.00;11.67
77411;PMS7003;66484;49.968;19.140;2024-02-14T10:54:10;18.67;16.00;13.00
77411;PMS7003;66484;49.968;19.140;2024-02-14T10:56:28;18.00;16.00;13.00
77411;PMS7003;66484;49.968;19.140;2024-02-14T10:58:45;17.67;13.00;9.00
77411;PMS7003;66484;49.968;19.140;2024-02-14T11:01:02;17.33;15.33;11.33
77411;PMS7003;66484;49.968;19.140;2024-02-14T11:03:19;18.33;16.00;11.00
77411;PMS7003;66484;49.968;19.140;2024-02-14T11:05:47;18.33;17.00;13.67
77411;PMS7003;66484;49.968;19.140;2024-02-14T11:08:18;23.67;23.00;16.00
77411;PMS7003;66484;49.968;19.140;2024-02-14T11:11:05;25.00;19.67;12.00
77411;PMS7003;66484;49.968;19.140;2024-02-14T11:13:35;20.00;14.33;11.00
77411;PMS7003;66484;49.968;19.140;2024-02-14T11:16:04;12.00;9.67;7.33
77411;PMS7003;66484;49.968;19.140;2024-02-14T11:18:33;14.33;13.00;9.33
77411;PMS7003;66484;49.968;19.140;2024-02-14T11:20:48;17.67;15.33;10.67
77411;PMS7003;66484;49.968;19.140;2024-02-14T11:23:06;15.33;12.67;10.67
77411;PMS7003;66484;49.968;19.140;2024-02-14T11:25:32;10.00;10.00;6.33
77411;PMS7003;66484;49.968;19.140;2024-02-14T11:27:47;8.33;7.67;5.67
77411;PMS7003;66484;49.968;19.140;2024-02-14T11:30:05;8.67;7.67;6.33
77411;PMS7003;66484;49.968;19.140;2024-02-14T11:32:21;11.00;11.00;8.67
77411;PMS7003;66484;49.968;19.140;2024-02-14T11:34:36;7.33;7.33;5.67
77411;PMS7003;66484;49.968;19.140;2024-02-14T11:36:58;4.67;4.67;3.00
77411;PMS7003;66484;49.968;19.140;2024-02-14T11:39:07;11.00;11.00;7.00
77411;PMS7003;66484;49.968;19.140;2024-02-14T11:41:29;9.00;9.00;7.00
77411;PMS7003;66484;49.968;19.140;2024-02-14T11:43:53;15.00;12.67;8.67
77411;PMS7003;66484;49.968;19.140;2024-02-14T11:46:16;13.00;11.00;8.33
77411;PMS7003;66484;49.968;19.140;2024-02-14T11:48:32;11.33;8.00;7.00
77411;PMS7003;66484;49.968;19.140;2024-02-14T11:50:56;8.00;7.00;5.00
77411;PMS7003;66484;49.968;19.140;2024-02-14T11:53:05;13.33;11.67;9.00
77411;PMS7003;66484;49.968;19.140;2024-02-14T11:55:29;9.00;9.00;7.00
77411;PMS7003;66484;49.968;19.140;2024-02-14T11:57:44;8.33;8.33;7.00
77411;PMS7003;66484;49.968;19.140;2024-02-14T12:00:00;13.33;12.33;9.67
77411;PMS7003;66484;49.968;19.140;2024-02-14T12:02:15;12.00;10.33;9.67
77411;PMS7003;66484;49.968;19.140;2024-02-14T12:04:37;14.67;13.67;9.33
77411;PMS7003;66484;49.968;19.140;2024-02-14T12:06:53;12.00;10.33;7.33
77411;PMS7003;66484;49.968;19.140;2024-02-14T12:09:15;10.00;9.00;7.00
77411;PMS7003;66484;49.968;19.140;2024-02-14T12:11:44;21.00;19.67;13.67
77411;PMS7003;66484;49.968;19.140;2024-02-14T12:14:13;11.33;9.67;8.00
77411;PMS7003;66484;49.968;19.140;2024-02-14T12:16:23;11.00;8.33;7.00
77411;PMS7003;66484;49.968;19.140;2024-02-14T12:18:47;10.00;9.33;8.00
77411;PMS7003;66484;49.968;19.140;2024-02-14T12:21:05;14.00;13.00;10.00
77411;PMS7003;66484;49.968;19.140;2024-02-14T12:23:35;10.67;10.67;9.00
77411;PMS7003;66484;49.968;19.140;2024-02-14T12:26:04;11.00;11.00;8.67
77411;PMS7003;66484;49.968;19.140;2024-02-14T12:28:13;8.33;6.00;4.33
77411;PMS7003;66484;49.968;19.140;2024-02-14T12:30:45;10.67;9.33;6.33
77411;PMS7003;66484;49.968;19.140;2024-02-14T12:33:00;9.00;9.00;6.00
77411;PMS7003;66484;49.968;19.140;2024-02-14T12:35:24;9.00;9.00;7.00
77411;PMS7003;66484;49.968;19.140;2024-02-14T12:37:39;8.33;8.33;6.33
77411;PMS7003;66484;49.968;19.140;2024-02-14T12:39:54;9.00;8.33;6.67
77411;PMS7003;66484;49.968;19.140;2024-02-14T12:42:11;12.33;11.33;7.33
77411;PMS7003;66484;49.968;19.140;2024-02-14T12:44:26;12.00;11.00;8.67
77411;PMS7003;66484;49.968;19.140;2024-02-14T12:46:41;13.00;12.00;10.00
77411;PMS7003;66484;49.968;19.140;2024-02-14T12:48:56;5.33;4.00;4.00
77411;PMS7003;66484;49.968;19.140;2024-02-14T12:51:11;10.00;9.33;6.67
77411;PMS7003;66484;49.968;19.140;2024-02-14T12:53:27;9.67;9.67;7.33
77411;PMS7003;66484;49.968;19.140;2024-02-14T12:55:42;10.33;10.33;9.33
77411;PMS7003;66484;49.968;19.140;2024-02-14T12:57:57;5.00;4.00;4.00
77411;PMS7003;66484;49.968;19.140;2024-02-14T13:00:19;18.00;17.33;13.00
77411;PMS7003;66484;49.968;19.140;2024-02-14T13:02:29;16.33;15.67;13.00
77411;PMS7003;66484;49.968;19.140;2024-02-14T13:04:51;14.67;14.00;10.67
77411;PMS7003;66484;49.968;19.140;2024-02-14T13:07:02;11.33;9.33;7.33
77411;PMS7003;66484;49.968;19.140;2024-02-14T13:09:24;13.00;11.67;8.33
77411;PMS7003;66484;49.968;19.140;2024-02-14T13:11:53;13.67;10.33;7.67
77411;PMS7003;66484;49.968;19.140;2024-02-14T13:14:22;14.00;10.00;8.00
77411;PMS7003;66484;49.968;19.140;2024-02-14T13:16:54;12.00;11.00;8.00
77411;PMS7003;66484;49.968;19.140;2024-02-14T13:19:23;14.67;14.00;11.00
77411;PMS7003;66484;49.968;19.140;2024-02-14T13:21:52;15.33;15.33;10.00
77411;PMS7003;66484;49.968;19.140;2024-02-14T13:24:21;13.00;11.00;7.67
77411;PMS7003;66484;49.968;19.140;2024-02-14T13:26:29;11.00;10.33;9.00
77411;PMS7003;66484;49.968;19.140;2024-02-14T13:28:58;9.00;8.00;6.00
77411;PMS7003;66484;49.968;19.140;2024-02-14T13:31:07;13.00;12.00;8.67
77411;PMS7003;66484;49.968;19.140;2024-02-14T13:33:29;12.00;11.00;8.00
77411;PMS7003;66484;49.968;19.140;2024-02-14T13:35:38;9.00;8.67;6.67
77411;PMS7003;66484;49.968;19.140;2024-02-14T13:38:07;13.33;11.33;8.00
77411;PMS7003;66484;49.968;19.140;2024-02-14T13:40:36;8.00;8.00;5.67
77411;PMS7003;66484;49.968;19.140;2024-02-14T13:42:45;9.67;8.33;8.00
77411;PMS7003;66484;49.968;19.140;2024-02-14T13:45:07;9.00;9.00;8.00
77411;PMS7003;66484;49.968;19.140;2024-02-14T13:47:20;12.00;10.67;8.67
77411;PMS7003;66484;49.968;19.140;2024-02-14T13:49:42;9.33;9.33;8.00
77411;PMS7003;66484;49.968;19.140;2024-02-14T13:51:51;10.00;9.33;8.00
77411;PMS7003;66484;49.968;19.140;2024-02-14T13:54:14;15.00;15.00;13.00
77411;PMS7003;66484;49.968;19.140;2024-02-14T13:56:27;12.00;12.00;9.00
77411;PMS7003;66484;49.968;19.140;2024-02-14T13:58:56;12.67;12.67;9.00
77411;PMS7003;66484;49.968;19.140;2024-02-14T14:01:31;13.33;11.33;8.33
77411;PMS7003;66484;49.968;19.140;2024-02-14T14:03:54;11.33;10.67;8.00
77411;PMS7003;66484;49.968;19.140;2024-02-14T14:06:23;10.00;9.00;7.00
77411;PMS7003;66484;49.968;19.140;2024-02-14T14:08:36;10.33;8.33;7.33
77411;PMS7003;66484;49.968;19.140;2024-02-14T14:11:02;7.67;7.33;6.00
77411;PMS7003;66484;49.968;19.140;2024-02-14T14:13:12;9.00;9.00;7.00
77411;PMS7003;66484;49.968;19.140;2024-02-14T14:15:36;9.33;9.00;6.67
77411;PMS7003;66484;49.968;19.140;2024-02-14T14:17:45;9.00;7.67;6.33
77411;PMS7003;66484;49.968;19.140;2024-02-14T14:20:13;8.67;8.67;6.67
77411;PMS7003;66484;49.968;19.140;2024-02-14T14:22:22;14.00;12.33;8.67
77411;PMS7003;66484;49.968;19.140;2024-02-14T14:24:44;8.33;8.00;6.00
77411;PMS7003;66484;49.968;19.140;2024-02-14T14:27:03;13.00;13.00;8.67
77411;PMS7003;66484;49.968;19.140;2024-02-14T14:29:21;6.33;5.00;4.00
77411;PMS7003;66484;49.968;19.140;2024-02-14T14:31:37;15.33;10.00;7.00
77411;PMS7003;66484;49.968;19.140;2024-02-14T14:33:45;13.33;7.33;6.33
77411;PMS7003;66484;49.968;19.140;2024-02-14T14:36:09;8.33;8.33;6.00
77411;PMS7003;66484;49.968;19.140;2024-02-14T14:38:18;9.33;9.33;8.00
77411;PMS7003;66484;49.968;19.140;2024-02-14T14:40:48;13.33;11.00;8.00
77411;PMS7003;66484;49.968;19.140;2024-02-14T14:43:17;10.67;8.00;6.00
77411;PMS7003;66484;49.968;19.140;2024-02-14T14:45:26;10.33;10.33;7.33
77411;PMS7003;66484;49.968;19.140;2024-02-14T14:47:48;12.33;11.00;7.00
77411;PMS7003;66484;49.968;19.140;2024-02-14T14:49:57;11.33;11.33;9.00
77411;PMS7003;66484;49.968;19.140;2024-02-14T14:52:26;14.67;11.67;9.33
77411;PMS7003;66484;49.968;19.140;2024-02-14T14:54:55;16.00;15.00;11.00
77411;PMS7003;66484;49.968;19.140;2024-02-14T14:57:04;19.33;15.00;13.00
77411;PMS7003;66484;49.968;19.140;2024-02-14T14:59:30;12.00;12.00;10.00
77411;PMS7003;66484;49.968;19.140;2024-02-14T15:01:39;19.33;18.67;13.67
77411;PMS7003;66484;49.968;19.140;2024-02-14T15:04:00;15.33;12.67;10.33
77411;PMS7003;66484;49.968;19.140;2024-02-14T15:06:09;18.67;15.67;11.00
77411;PMS7003;66484;49.968;19.140;2024-02-14T15:08:37;27.00;21.00;15.00
77411;PMS7003;66484;49.968;19.140;2024-02-14T15:11:06;16.33;16.00;8.00
77411;PMS7003;66484;49.968;19.140;2024-02-14T15:13:38;24.00;22.33;15.00
77411;PMS7003;66484;49.968;19.140;2024-02-14T15:16:07;22.33;21.33;15.00
77411;PMS7003;66484;49.968;19.140;2024-02-14T15:18:36;23.33;20.00;13.33
77411;PMS7003;66484;49.968;19.140;2024-02-14T15:20:58;20.00;17.33;13.33
77411;PMS7003;66484;49.968;19.140;2024-02-14T15:23:13;16.67;14.67;12.00
77411;PMS7003;66484;49.968;19.140;2024-02-14T15:25:28;16.67;16.67;10.67
77411;PMS7003;66484;49.968;19.140;2024-02-14T15:27:43;17.67;13.33;9.33
77411;PMS7003;66484;49.968;19.140;2024-02-14T15:30:04;20.33;19.00;12.00
77411;PMS7003;66484;49.968;19.140;2024-02-14T15:32:39;23.67;18.33;12.00
77411;PMS7003;66484;49.968;19.140;2024-02-14T15:35:29;21.00;19.00;12.00
77411;PMS7003;66484;49.968;19.140;2024-02-14T15:37:38;27.67;23.33;18.00
77411;PMS7003;66484;49.968;19.140;2024-02-14T15:40:03;31.67;24.67;19.00
77411;PMS7003;66484;49.968;19.140;2024-02-14T15:42:12;22.67;22.33;17.33
77411;PMS7003;66484;49.968;19.140;2024-02-14T15:44:20;26.00;22.75;17.00
77411;PMS7003;66484;49.968;19.140;2024-02-14T15:46:35;40.75;34.75;22.75
77411;PMS7003;66484;49.968;19.140;2024-02-14T15:48:50;47.00;39.50;27.00
77411;PMS7003;66484;49.968;19.140;2024-02-14T15:51:05;50.75;42.25;27.75
77411;PMS7003;66484;49.968;19.140;2024-02-14T15:53:20;44.75;37.50;26.00
77411;PMS7003;66484;49.968;19.140;2024-02-14T15:55:38;45.50;34.25;23.00
77411;PMS7003;66484;49.968;19.140;2024-02-14T15:57:53;29.50;29.50;21.00
77411;PMS7003;66484;49.968;19.140;2024-02-14T16:00:09;39.75;34.25;23.00
77411;PMS7003;66484;49.968;19.140;2024-02-14T16:02:25;47.25;39.25;27.00
77411;PMS7003;66484;49.968;19.140;2024-02-14T16:04:47;59.50;47.00;31.75
77411;PMS7003;66484;49.968;19.140;2024-02-14T16:06:55;56.50;43.75;29.50
77411;PMS7003;66484;49.968;19.140;2024-02-14T16:09:17;56.25;42.75;28.25
77411;PMS7003;66484;49.968;19.140;2024-02-14T16:11:46;50.25;40.75;27.00
77411;PMS7003;66484;49.968;19.140;2024-02-14T16:13:55;51.25;39.50;25.25
77411;PMS7003;66484;49.968;19.140;2024-02-14T16:16:17;48.00;38.50;25.00
77411;PMS7003;66484;49.968;19.140;2024-02-14T16:18:26;51.75;40.75;26.25
77411;PMS7003;66484;49.968;19.140;2024-02-14T16:20:55;41.25;36.75;23.00
77411;PMS7003;66484;49.968;19.140;2024-02-14T16:23:24;39.25;32.50;22.25
77411;PMS7003;66484;49.968;19.140;2024-02-14T16:25:32;43.50;34.00;22.50
77411;PMS7003;66484;49.968;19.140;2024-02-14T16:27:54;41.00;34.25;23.50
77411;PMS7003;66484;49.968;19.140;2024-02-14T16:30:03;48.00;38.50;25.50
77411;PMS7003;66484;49.968;19.140;2024-02-14T16:32:25;48.00;40.75;28.00
77411;PMS7003;66484;49.968;19.140;2024-02-14T16:34:34;57.75;45.75;30.00
77411;PMS7003;66484;49.968;19.140;2024-02-14T16:37:05;52.75;44.00;29.00
77411;PMS7003;66484;49.968;19.140;2024-02-14T16:39:14;56.75;44.75;29.75
77411;PMS7003;66484;49.968;19.140;2024-02-14T16:41:56;58.75;47.50;31.25
77411;PMS7003;66484;49.968;19.140;2024-02-14T16:44:05;60.50;49.50;33.00
77411;PMS7003;66484;49.968;19.140;2024-02-14T16:46:27;62.25;47.25;33.00
77411;PMS7003;66484;49.968;19.140;2024-02-14T16:48:35;67.75;51.00;33.00
77411;PMS7003;66484;49.968;19.140;2024-02-14T16:50:57;58.25;47.25;30.50
77411;PMS7003;66484;49.968;19.140;2024-02-14T16:53:05;64.25;49.25;32.25
77411;PMS7003;66484;49.968;19.140;2024-02-14T16:55:34;58.50;47.00;31.50
77411;PMS7003;66484;49.968;19.140;2024-02-14T16:58:03;56.50;45.25;29.25
77411;PMS7003;66484;49.968;19.140;2024-02-14T17:00:12;57.50;46.25;30.50
77411;PMS7003;66484;49.968;19.140;2024-02-14T17:02:34;49.25;41.25;27.50
77411;PMS7003;66484;49.968;19.140;2024-02-14T17:04:42;49.00;42.25;28.25
77411;PMS7003;66484;49.968;19.140;2024-02-14T17:07:11;49.25;39.50;27.50
77411;PMS7003;66484;49.968;19.140;2024-02-14T17:09:42;54.25;42.25;28.00
77411;PMS7003;66484;49.968;19.140;2024-02-14T17:12:11;52.00;42.50;28.00
77411;PMS7003;66484;49.968;19.140;2024-02-14T17:14:20;50.25;43.00;27.50
77411;PMS7003;66484;49.968;19.140;2024-02-14T17:16:43;51.50;42.00;27.00
77411;PMS7003;66484;49.968;19.140;2024-02-14T17:18:52;58.00;46.50;30.00
77411;PMS7003;66484;49.968;19.140;2024-02-14T17:21:21;74.75;58.25;36.25
77411;PMS7003;66484;49.968;19.140;2024-02-14T17:23:36;58.00;46.75;30.25
77411;PMS7003;66484;49.968;19.140;2024-02-14T17:25:59;66.25;50.75;34.50
77411;PMS7003;66484;49.968;19.140;2024-02-14T17:28:08;64.50;48.25;30.75
77411;PMS7003;66484;49.968;19.140;2024-02-14T17:30:37;67.00;49.25;32.00
77411;PMS7003;66484;49.968;19.140;2024-02-14T17:33:06;60.25;47.00;31.50
77411;PMS7003;66484;49.968;19.140;2024-02-14T17:35:35;58.50;46.75;30.25
77411;PMS7003;66484;49.968;19.140;2024-02-14T17:37:44;64.50;48.50;30.75
77411;PMS7003;66484;49.968;19.140;2024-02-14T17:40:12;61.75;47.50;30.50
77411;PMS7003;66484;49.968;19.140;2024-02-14T17:42:41;49.50;41.50;25.50
77411;PMS7003;66484;49.968;19.140;2024-02-14T17:45:10;65.00;50.00;33.00
77411;PMS7003;66484;49.968;19.140;2024-02-14T17:47:40;62.00;49.00;33.00
77411;PMS7003;66484;49.968;19.140;2024-02-14T17:49:50;63.25;49.00;31.00
77411;PMS7003;66484;49.968;19.140;2024-02-14T17:52:18;70.00;52.75;33.50
77411;PMS7003;66484;49.968;19.140;2024-02-14T17:54:47;61.25;46.00;34.25
77411;PMS7003;66484;49.968;19.140;2024-02-14T17:56:55;79.75;59.25;37.50
77411;PMS7003;66484;49.968;19.140;2024-02-14T17:59:17;70.50;56.75;36.25
77411;PMS7003;66484;49.968;19.140;2024-02-14T18:01:26;70.00;55.75;37.00
77411;PMS7003;66484;49.968;19.140;2024-02-14T18:03:49;75.75;65.00;44.50
77411;PMS7003;66484;49.968;19.140;2024-02-14T18:05:57;80.50;72.00;49.25
77411;PMS7003;66484;49.968;19.140;2024-02-14T18:08:26;78.00;66.50;42.75
77411;PMS7003;66484;49.968;19.140;2024-02-14T18:10:55;80.25;70.25;42.00
77411;PMS7003;66484;49.968;19.140;2024-02-14T18:13:03;78.00;63.00;39.75
77411;PMS7003;66484;49.968;19.140;2024-02-14T18:15:28;79.50;69.00;42.50
77411;PMS7003;66484;49.968;19.140;2024-02-14T18:17:36;64.25;49.00;30.00
77411;PMS7003;66484;49.968;19.140;2024-02-14T18:20:05;83.50;68.75;41.00
77411;PMS7003;66484;49.968;19.140;2024-02-14T18:22:15;77.75;65.75;41.25